createdAt,value
2023-02-27T00:00:02.388Z,72.58
2023-02-27T00:02:28.936Z,72.16
2023-02-27T00:04:57.880Z,71.92
2023-02-27T00:07:26.215Z,72.50
2023-02-27T00:09:53.267Z,71.37
2023-02-27T00:12:20.154Z,72.27
2023-02-27T00:14:46.704Z,72.90
2023-02-27T00:17:13.312Z,72.91
2023-02-27T00:19:39.855Z,72.64
2023-02-27T00:22:06.417Z,72.87
2023-02-27T00:24:33.033Z,72.71
2023-02-27T00:26:59.782Z,72.86
2023-02-27T00:29:26.393Z,73.12
2023-02-27T00:31:53.402Z,73.72
2023-02-27T00:34:20.013Z,73.28
2023-02-27T00:36:46.646Z,72.96
2023-02-27T00:39:14.512Z,72.97
2023-02-27T00:41:41.200Z,73.54
2023-02-27T00:44:08.003Z,73.95
2023-02-27T00:46:34.592Z,73.99
2023-02-27T00:49:01.179Z,73.84
2023-02-27T00:51:28.024Z,72.86
2023-02-27T00:53:54.762Z,72.57
2023-02-27T00:56:21.424Z,73.18
2023-02-27T00:58:48.044Z,73.84
2023-02-27T01:01:15.461Z,72.83
2023-02-27T01:03:42.075Z,72.94
2023-02-27T01:06:08.622Z,73.21
2023-02-27T01:08:35.152Z,72.11
2023-02-27T01:11:01.782Z,72.16
2023-02-27T01:13:28.360Z,72.23
2023-02-27T01:15:54.957Z,72.10
2023-02-27T01:18:21.498Z,72.66
2023-02-27T01:20:52.677Z,72.84
2023-02-27T01:23:19.275Z,73.14
2023-02-27T01:25:47.645Z,72.97
2023-02-27T01:28:14.809Z,72.36
2023-02-27T01:30:42.477Z,72.61
2023-02-27T01:33:09.045Z,73.65
2023-02-27T01:35:36.292Z,73.62
2023-02-27T01:38:02.825Z,73.52
2023-02-27T01:40:29.361Z,73.79
2023-02-27T01:42:55.950Z,73.31
2023-02-27T01:45:42.080Z,73.96
2023-02-27T01:48:18.397Z,72.76
2023-02-27T01:50:56.160Z,73.88
2023-02-27T01:53:26.041Z,74.12
2023-02-27T01:55:59.789Z,73.57
2023-02-27T01:58:27.130Z,74.77
2023-02-27T02:00:54.915Z,74.67
2023-02-27T02:03:48.336Z,75.17
2023-02-27T02:06:14.899Z,74.76
2023-02-27T02:08:45.121Z,74.86
2023-02-27T02:11:15.285Z,74.72
2023-02-27T02:13:42.546Z,74.99
2023-02-27T02:16:27.637Z,74.08
2023-02-27T02:19:02.673Z,74.52
2023-02-27T02:22:01.383Z,74.91
2023-02-27T02:24:52.681Z,75.19
2023-02-27T02:27:29.797Z,74.04
2023-02-27T02:30:08.610Z,73.79
2023-02-27T02:33:07.733Z,74.53
2023-02-27T02:35:55.899Z,75.13
2023-02-27T02:39:16.385Z,75.24
2023-02-27T02:42:00.926Z,74.81
2023-02-27T02:45:02.393Z,75.30
2023-02-27T02:47:53.138Z,74.99
2023-02-27T02:50:45.857Z,75.35
2023-02-27T02:53:36.070Z,74.91
2023-02-27T02:56:22.219Z,75.53
2023-02-27T02:59:05.092Z,75.10
2023-02-27T03:01:44.646Z,74.95
2023-02-27T03:04:31.785Z,75.14
2023-02-27T03:07:06.805Z,74.71
2023-02-27T03:09:41.493Z,74.90
2023-02-27T03:12:14.222Z,75.59
2023-02-27T03:15:06.085Z,74.87
2023-02-27T03:17:52.834Z,75.78
2023-02-27T03:20:24.779Z,75.38
2023-02-27T03:22:55.946Z,75.66
2023-02-27T03:25:26.024Z,75.13
2023-02-27T03:28:00.364Z,75.42
2023-02-27T03:30:30.610Z,74.63
2023-02-27T03:33:08.259Z,75.72
2023-02-27T03:35:51.437Z,74.96
2023-02-27T03:38:25.478Z,75.37
2023-02-27T03:41:27.517Z,75.43
2023-02-27T03:44:33.529Z,74.96
2023-02-27T03:47:00.183Z,76.17
2023-02-27T03:49:27.240Z,76.24
2023-02-27T03:51:54.760Z,75.70
2023-02-27T03:54:33.577Z,75.67
2023-02-27T03:57:04.515Z,75.59
2023-02-27T03:59:32.544Z,76.63
2023-02-27T04:02:01.503Z,75.87
2023-02-27T04:04:31.944Z,74.92
2023-02-27T04:07:22.864Z,74.50
2023-02-27T04:10:26.985Z,74.45
2023-02-27T04:13:10.799Z,75.26
2023-02-27T04:16:02.414Z,74.60
2023-02-27T04:19:04.645Z,73.81
2023-02-27T04:22:09.588Z,75.35
2023-02-27T04:24:57.381Z,75.21
2023-02-27T04:27:46.405Z,75.21
2023-02-27T04:30:15.598Z,75.36
2023-02-27T04:33:21.704Z,74.46
2023-02-27T04:35:53.125Z,74.66
2023-02-27T04:38:28.810Z,73.50
2023-02-27T04:41:12.025Z,74.93
2023-02-27T04:43:40.902Z,74.62
2023-02-27T04:46:11.053Z,74.92
2023-02-27T04:48:48.207Z,74.71
2023-02-27T04:51:19.544Z,75.62
2023-02-27T04:53:55.129Z,74.55
2023-02-27T04:56:27.614Z,74.56
2023-02-27T04:59:04.382Z,74.12
2023-02-27T05:01:43.980Z,75.40
2023-02-27T05:04:15.024Z,76.09
2023-02-27T05:06:43.803Z,75.35
2023-02-27T05:09:31.865Z,75.02
2023-02-27T05:12:07.708Z,75.65
2023-02-27T05:14:41.394Z,75.61
2023-02-27T05:17:11.770Z,76.10
2023-02-27T05:19:40.925Z,75.98
2023-02-27T05:22:28.688Z,76.02
2023-02-27T05:25:27.043Z,75.40
2023-02-27T05:28:12.374Z,75.50
2023-02-27T05:30:48.916Z,76.28
2023-02-27T05:33:27.648Z,76.57
2023-02-27T05:36:03.060Z,76.83
2023-02-27T05:38:39.852Z,75.60
2023-02-27T05:41:17.984Z,76.24
2023-02-27T05:43:50.589Z,76.09
2023-02-27T05:46:29.293Z,76.85
2023-02-27T05:49:11.295Z,76.91
2023-02-27T05:51:40.114Z,77.14
2023-02-27T05:54:13.825Z,78.01
2023-02-27T05:56:42.439Z,76.88
2023-02-27T05:59:17.622Z,77.18
2023-02-27T06:01:46.288Z,77.86
2023-02-27T06:04:13.171Z,77.92
2023-02-27T06:06:41.987Z,77.09
2023-02-27T06:09:09.351Z,77.19
2023-02-27T06:11:35.899Z,77.39
2023-02-27T06:14:03.375Z,77.31
2023-02-27T06:16:30.508Z,77.37
2023-02-27T06:18:57.267Z,77.42
2023-02-27T06:21:23.837Z,77.56
2023-02-27T06:23:50.429Z,77.56
2023-02-27T06:26:16.957Z,77.78
2023-02-27T06:28:43.793Z,77.88
2023-02-27T06:31:10.448Z,76.99
2023-02-27T06:33:37.351Z,77.64
2023-02-27T06:36:04.245Z,76.73
2023-02-27T06:38:31.484Z,77.03
2023-02-27T06:40:58.489Z,77.33
2023-02-27T06:43:25.176Z,77.10
2023-02-27T06:45:55.168Z,77.40
2023-02-27T06:48:21.937Z,77.05
2023-02-27T06:50:56.389Z,77.41
2023-02-27T06:53:24.261Z,77.08
2023-02-27T06:55:51.148Z,77.57
2023-02-27T06:58:18.408Z,76.73
2023-02-27T07:00:45.030Z,77.47
2023-02-27T07:03:12.582Z,77.71
2023-02-27T07:05:41.311Z,76.09
2023-02-27T07:08:08.608Z,75.69
2023-02-27T07:10:35.195Z,76.65
2023-02-27T07:13:03.018Z,76.09
2023-02-27T07:15:29.546Z,76.11
2023-02-27T07:17:56.132Z,75.76
2023-02-27T07:20:22.692Z,75.74
2023-02-27T07:22:49.234Z,75.98
2023-02-27T07:25:15.841Z,75.23
2023-02-27T07:27:45.641Z,75.09
2023-02-27T07:30:12.723Z,75.20
2023-02-27T07:32:39.286Z,74.00
2023-02-27T07:35:06.633Z,74.77
2023-02-27T07:37:33.181Z,74.01
2023-02-27T07:39:59.754Z,73.01
2023-02-27T07:42:26.338Z,69.88
2023-02-27T07:44:52.939Z,66.50
2023-02-27T07:47:19.531Z,64.06
2023-02-27T07:49:46.129Z,63.44
2023-02-27T07:52:12.771Z,61.59
2023-02-27T07:54:39.379Z,59.10
2023-02-27T07:57:06.447Z,58.09
2023-02-27T07:59:33.255Z,58.93
2023-02-27T08:01:59.785Z,56.06
2023-02-27T08:04:26.430Z,55.64
2023-02-27T08:06:53.040Z,58.76
2023-02-27T08:09:19.745Z,56.67
2023-02-27T08:11:48.900Z,54.70
2023-02-27T08:14:15.886Z,55.29
2023-02-27T08:16:42.466Z,54.33
2023-02-27T08:19:09.071Z,53.09
2023-02-27T08:21:35.629Z,51.76
2023-02-27T08:24:02.215Z,53.79
2023-02-27T08:26:29.165Z,55.47
2023-02-27T08:28:55.956Z,53.29
2023-02-27T08:31:22.596Z,51.51
2023-02-27T08:33:55.280Z,51.40
2023-02-27T08:36:24.597Z,49.49
2023-02-27T08:38:52.563Z,51.72
2023-02-27T08:41:19.215Z,51.46
2023-02-27T08:43:45.778Z,51.57
2023-02-27T08:46:12.411Z,47.92
2023-02-27T08:48:39.412Z,48.47
2023-02-27T08:51:06.092Z,46.11
2023-02-27T08:53:32.683Z,49.16
2023-02-27T08:55:59.198Z,49.84
2023-02-27T08:58:25.860Z,48.94
2023-02-27T09:00:52.473Z,49.02
2023-02-27T09:03:18.989Z,49.53
2023-02-27T09:05:45.618Z,48.24
2023-02-27T09:08:12.231Z,48.01
2023-02-27T09:10:38.931Z,48.21
2023-02-27T09:13:05.509Z,50.41
2023-02-27T09:15:34.460Z,50.78
2023-02-27T09:18:03.162Z,47.41
2023-02-27T09:20:31.755Z,47.74
2023-02-27T09:22:59.306Z,47.21
2023-02-27T09:25:26.536Z,46.88
2023-02-27T09:27:53.102Z,45.76
2023-02-27T09:30:19.745Z,45.76
2023-02-27T09:32:46.454Z,47.76
2023-02-27T09:35:15.801Z,47.19
2023-02-27T09:37:43.877Z,49.67
2023-02-27T09:40:26.417Z,47.42
2023-02-27T09:42:58.177Z,46.58
2023-02-27T09:45:30.556Z,46.38
2023-02-27T09:48:08.333Z,47.52
2023-02-27T09:50:44.652Z,46.35
2023-02-27T09:53:31.213Z,48.83
2023-02-27T09:56:07.461Z,48.62
2023-02-27T09:59:02.058Z,46.16
2023-02-27T10:01:37.400Z,50.17
2023-02-27T10:04:25.677Z,46.70
2023-02-27T10:06:57.416Z,46.10
2023-02-27T10:09:36.215Z,50.29
2023-02-27T10:12:02.654Z,47.56
2023-02-27T10:14:55.536Z,49.15
2023-02-27T10:17:48.390Z,49.38
2023-02-27T10:20:28.149Z,47.79
2023-02-27T10:22:56.710Z,45.85
2023-02-27T10:25:31.791Z,47.20
2023-02-27T10:28:09.021Z,48.27
2023-02-27T10:30:36.058Z,47.94
2023-02-27T10:33:37.278Z,49.16
2023-02-27T10:36:12.427Z,47.75
2023-02-27T10:38:48.155Z,46.07
2023-02-27T10:41:18.136Z,45.65
2023-02-27T10:43:44.904Z,46.46
2023-02-27T10:46:32.729Z,47.79
2023-02-27T10:49:00.769Z,47.75
2023-02-27T10:51:31.229Z,44.04
2023-02-27T10:54:19.428Z,45.47
2023-02-27T10:56:50.519Z,46.74
2023-02-27T10:59:21.715Z,43.12
2023-02-27T11:02:17.280Z,45.33
2023-02-27T11:04:53.892Z,46.25
2023-02-27T11:07:47.435Z,44.84
2023-02-27T11:10:14.112Z,46.59
2023-02-27T11:12:42.518Z,44.84
2023-02-27T11:15:14.987Z,44.51
2023-02-27T11:17:43.140Z,41.92
2023-02-27T11:20:29.987Z,41.00
2023-02-27T11:23:04.811Z,42.00
2023-02-27T11:25:32.134Z,42.27
2023-02-27T11:28:23.882Z,40.64
2023-02-27T11:31:03.333Z,41.93
2023-02-27T11:33:35.978Z,39.07
2023-02-27T11:36:03.661Z,39.32
2023-02-27T11:38:32.241Z,41.07
2023-02-27T11:41:02.130Z,40.94
2023-02-27T11:43:33.522Z,41.08
2023-02-27T11:46:35.871Z,39.80
2023-02-27T11:49:26.959Z,41.31
2023-02-27T11:52:16.646Z,41.62
2023-02-27T11:54:51.057Z,42.33
2023-02-27T11:57:27.481Z,41.87
2023-02-27T12:00:06.849Z,41.24
2023-02-27T12:02:45.988Z,39.62
2023-02-27T12:05:26.187Z,38.27
2023-02-27T12:08:02.489Z,38.95
2023-02-27T12:10:35.670Z,38.19
2023-02-27T12:13:16.388Z,40.79
2023-02-27T12:15:52.937Z,39.41
2023-02-27T12:18:34.774Z,37.79
2023-02-27T12:21:10.689Z,37.53
2023-02-27T12:23:43.611Z,37.40
2023-02-27T12:26:27.448Z,40.18
2023-02-27T12:29:03.858Z,39.47
2023-02-27T12:31:35.549Z,37.22
2023-02-27T12:34:20.101Z,38.75
2023-02-27T12:36:48.601Z,40.67
2023-02-27T12:39:24.296Z,41.21
2023-02-27T12:42:09.028Z,38.59
2023-02-27T12:45:01.164Z,41.00
2023-02-27T12:47:52.304Z,40.29
2023-02-27T12:50:21.272Z,38.94
2023-02-27T12:53:52.944Z,41.20
2023-02-27T12:56:20.752Z,41.45
2023-02-27T12:59:15.842Z,42.15
2023-02-27T13:01:59.795Z,43.30
2023-02-27T13:04:38.022Z,42.52
2023-02-27T13:07:09.728Z,40.85
2023-02-27T13:09:44.602Z,41.17
2023-02-27T13:12:43.143Z,42.48
2023-02-27T13:15:22.012Z,39.82
2023-02-27T13:17:53.010Z,40.99
2023-02-27T13:20:22.424Z,42.07
2023-02-27T13:22:53.736Z,41.69
2023-02-27T13:25:21.623Z,39.99
2023-02-27T13:27:54.703Z,41.74
2023-02-27T13:30:35.225Z,40.58
2023-02-27T13:33:21.047Z,42.61
2023-02-27T13:35:47.625Z,44.44
2023-02-27T13:38:32.895Z,42.91
2023-02-27T13:41:25.052Z,42.75
2023-02-27T13:43:53.713Z,39.29
2023-02-27T13:46:26.355Z,43.33
2023-02-27T13:49:05.033Z,42.47
2023-02-27T13:51:43.657Z,44.54
2023-02-27T13:54:13.277Z,43.40
2023-02-27T13:56:43.110Z,43.05
2023-02-27T13:59:24.212Z,42.47
2023-02-27T14:02:03.633Z,42.96
2023-02-27T14:04:34.598Z,43.67
2023-02-27T14:07:12.025Z,42.00
2023-02-27T14:09:42.651Z,42.87
2023-02-27T14:12:44.072Z,44.00
2023-02-27T14:15:17.448Z,44.87
2023-02-27T14:17:46.360Z,44.69
2023-02-27T14:20:12.865Z,45.04
2023-02-27T14:23:17.444Z,45.56
2023-02-27T14:25:53.014Z,44.38
2023-02-27T14:28:31.822Z,43.54
2023-02-27T14:31:05.969Z,44.51
2023-02-27T14:33:46.795Z,45.10
2023-02-27T14:36:28.967Z,44.68
2023-02-27T14:38:58.168Z,47.73
2023-02-27T14:41:49.473Z,45.65
2023-02-27T14:44:18.897Z,44.93
2023-02-27T14:46:45.557Z,44.65
2023-02-27T14:49:33.171Z,46.47
2023-02-27T14:52:29.732Z,45.51
2023-02-27T14:55:13.215Z,45.08
2023-02-27T14:57:40.088Z,44.22
2023-02-27T15:00:07.565Z,45.28
2023-02-27T15:02:36.225Z,46.13
2023-02-27T15:05:02.700Z,45.83
2023-02-27T15:07:32.066Z,46.53
2023-02-27T15:10:06.141Z,46.87
2023-02-27T15:12:38.377Z,46.59
2023-02-27T15:15:07.881Z,48.33
2023-02-27T15:17:41.328Z,48.40
2023-02-27T15:20:23.427Z,47.80
2023-02-27T15:22:50.867Z,48.02
2023-02-27T15:25:46.915Z,47.17
2023-02-27T15:28:30.854Z,47.76
2023-02-27T15:30:57.969Z,45.54
2023-02-27T15:33:29.004Z,46.85
2023-02-27T15:35:56.703Z,47.80
2023-02-27T15:38:29.233Z,48.71
2023-02-27T15:40:57.314Z,48.46
2023-02-27T15:43:26.123Z,48.29
2023-02-27T15:45:53.475Z,49.01
2023-02-27T15:48:20.888Z,50.43
2023-02-27T15:50:57.499Z,49.19
2023-02-27T15:53:26.467Z,50.70
2023-02-27T15:55:55.213Z,48.81
2023-02-27T15:58:28.123Z,50.69
2023-02-27T16:01:07.759Z,51.40
2023-02-27T16:03:42.982Z,51.25
2023-02-27T16:06:18.546Z,52.35
2023-02-27T16:08:51.168Z,51.56
2023-02-27T16:11:23.093Z,52.37
2023-02-27T16:13:49.922Z,53.35
2023-02-27T16:16:28.414Z,51.81
2023-02-27T16:18:58.343Z,53.49
2023-02-27T16:21:31.314Z,51.84
2023-02-27T16:24:21.349Z,52.88
2023-02-27T16:26:52.790Z,52.42
2023-02-27T16:29:22.360Z,53.81
2023-02-27T16:31:55.025Z,54.13
2023-02-27T16:34:46.686Z,54.47
2023-02-27T16:37:21.289Z,53.81
2023-02-27T16:39:51.127Z,55.24
2023-02-27T16:42:18.159Z,54.41
2023-02-27T16:44:44.821Z,54.35
2023-02-27T16:47:11.414Z,54.09
2023-02-27T16:49:39.075Z,54.21
2023-02-27T16:52:07.361Z,55.86
2023-02-27T16:54:35.255Z,56.49
2023-02-27T16:57:01.832Z,56.79
2023-02-27T16:59:30.252Z,55.65
2023-02-27T17:01:58.301Z,56.26
2023-02-27T17:04:26.332Z,56.35
2023-02-27T17:06:54.231Z,55.98
2023-02-27T17:09:20.958Z,56.22
2023-02-27T17:11:47.567Z,54.54
2023-02-27T17:14:14.229Z,55.47
2023-02-27T17:16:41.105Z,56.43
2023-02-27T17:19:08.302Z,56.01
2023-02-27T17:21:35.082Z,56.14
2023-02-27T17:24:02.348Z,55.18
2023-02-27T17:26:29.418Z,56.70
2023-02-27T17:28:56.494Z,55.66
2023-02-27T17:31:24.138Z,56.07
2023-02-27T17:33:52.445Z,56.38
2023-02-27T17:36:20.955Z,56.76
2023-02-27T17:38:48.850Z,57.91
2023-02-27T17:41:16.408Z,56.93
2023-02-27T17:43:43.052Z,57.33
2023-02-27T17:46:11.418Z,58.34
2023-02-27T17:48:38.778Z,58.33
2023-02-27T17:51:07.249Z,57.70
2023-02-27T17:53:35.316Z,57.30
2023-02-27T17:56:02.121Z,58.28
2023-02-27T17:58:28.771Z,59.02
2023-02-27T18:00:55.969Z,58.26
2023-02-27T18:03:22.573Z,58.48
2023-02-27T18:05:52.690Z,58.88
2023-02-27T18:08:19.452Z,58.62
2023-02-27T18:10:50.316Z,59.26
2023-02-27T18:13:18.498Z,59.46
2023-02-27T18:15:46.011Z,58.94
2023-02-27T18:18:14.324Z,59.37
2023-02-27T18:20:41.021Z,59.04
2023-02-27T18:23:08.807Z,59.50
2023-02-27T18:25:36.468Z,59.22
2023-02-27T18:28:03.880Z,59.79
2023-02-27T18:30:33.444Z,59.99
2023-02-27T18:33:00.319Z,60.67
2023-02-27T18:35:27.792Z,60.81
2023-02-27T18:37:54.459Z,60.45
2023-02-27T18:40:25.030Z,60.69
2023-02-27T18:42:55.428Z,61.06
2023-02-27T18:45:22.446Z,60.95
2023-02-27T18:47:48.992Z,61.63
2023-02-27T18:50:15.966Z,60.61
2023-02-27T18:52:42.534Z,61.37
2023-02-27T18:55:10.844Z,61.03
2023-02-27T18:57:37.407Z,61.14
2023-02-27T19:00:06.051Z,58.96
2023-02-27T19:02:32.670Z,61.28
2023-02-27T19:05:01.005Z,61.50
2023-02-27T19:07:30.052Z,60.54
2023-02-27T19:09:56.624Z,61.97
2023-02-27T19:12:23.234Z,61.50
2023-02-27T19:14:50.106Z,60.36
2023-02-27T19:17:16.757Z,59.76
2023-02-27T19:19:43.414Z,62.08
2023-02-27T19:22:09.980Z,61.22
2023-02-27T19:24:36.588Z,62.07
2023-02-27T19:27:03.311Z,59.73
2023-02-27T19:29:29.851Z,60.27
2023-02-27T19:31:56.444Z,61.78
2023-02-27T19:34:23.132Z,60.58
2023-02-27T19:36:49.786Z,59.04
2023-02-27T19:39:16.385Z,58.95
2023-02-27T19:41:43.109Z,59.63
2023-02-27T19:44:09.820Z,58.45
2023-02-27T19:46:36.482Z,58.79
2023-02-27T19:49:05.246Z,57.18
2023-02-27T19:51:32.119Z,58.10
2023-02-27T19:53:58.927Z,57.04
2023-02-27T19:56:27.429Z,57.32
2023-02-27T19:58:54.571Z,56.92
2023-02-27T20:01:26.427Z,57.75
2023-02-27T20:03:53.659Z,58.67
2023-02-27T20:06:23.786Z,57.77
2023-02-27T20:08:51.980Z,57.97
2023-02-27T20:11:20.771Z,58.00
2023-02-27T20:13:48.631Z,57.49
2023-02-27T20:16:18.092Z,57.25
2023-02-27T20:18:45.255Z,56.62
2023-02-27T20:21:17.922Z,57.53
2023-02-27T20:23:46.332Z,57.96
2023-02-27T20:26:18.982Z,57.51
2023-02-27T20:28:46.486Z,57.64
2023-02-27T20:31:14.902Z,58.44
2023-02-27T20:33:42.049Z,58.95
2023-02-27T20:36:10.544Z,58.71
2023-02-27T20:38:40.989Z,55.85
2023-02-27T20:41:19.769Z,56.80
2023-02-27T20:43:47.973Z,56.57
2023-02-27T20:46:18.014Z,56.49
2023-02-27T20:48:45.012Z,57.13
2023-02-27T20:51:15.288Z,56.91
2023-02-27T20:53:44.569Z,56.22
2023-02-27T20:56:11.692Z,57.48
2023-02-27T20:58:39.272Z,57.97
2023-02-27T21:01:11.652Z,57.62
2023-02-27T21:03:40.135Z,57.25
2023-02-27T21:06:08.965Z,57.60
2023-02-27T21:08:41.157Z,57.31
2023-02-27T21:11:13.039Z,57.00
2023-02-27T21:13:40.072Z,57.71
2023-02-27T21:16:09.304Z,58.24
2023-02-27T21:18:38.160Z,58.94
2023-02-27T21:21:17.281Z,58.96
2023-02-27T21:23:44.402Z,59.47
2023-02-27T21:26:21.795Z,60.67
2023-02-27T21:29:01.108Z,60.05
2023-02-27T21:31:30.885Z,59.74
2023-02-27T21:34:00.894Z,60.68
2023-02-27T21:36:33.378Z,60.10
2023-02-27T21:39:03.221Z,60.87
2023-02-27T21:41:30.925Z,61.01
2023-02-27T21:44:02.881Z,61.91
2023-02-27T21:46:30.498Z,62.52
2023-02-27T21:48:57.328Z,62.32
2023-02-27T21:51:38.609Z,61.71
2023-02-27T21:54:06.763Z,61.63
2023-02-27T21:56:33.796Z,62.38
2023-02-27T21:59:02.008Z,62.88
2023-02-27T22:01:29.741Z,62.90
2023-02-27T22:03:56.960Z,62.42
2023-02-27T22:06:24.908Z,63.57
2023-02-27T22:08:56.049Z,64.26
2023-02-27T22:11:23.968Z,64.42
2023-02-27T22:13:50.625Z,64.03
2023-02-27T22:16:17.910Z,64.22
2023-02-27T22:18:44.711Z,64.72
2023-02-27T22:21:16.167Z,64.13
2023-02-27T22:23:43.943Z,65.40
2023-02-27T22:26:29.247Z,65.62
2023-02-27T22:28:57.340Z,66.05
2023-02-27T22:31:26.525Z,66.08
2023-02-27T22:33:55.813Z,66.61
2023-02-27T22:36:27.684Z,66.48
2023-02-27T22:38:54.207Z,67.09
2023-02-27T22:41:26.559Z,66.71
2023-02-27T22:43:53.577Z,66.84
2023-02-27T22:46:26.996Z,67.06
2023-02-27T22:48:58.995Z,67.28
2023-02-27T22:51:27.859Z,68.78
2023-02-27T22:53:57.232Z,68.61
2023-02-27T22:56:24.739Z,68.01
2023-02-27T22:58:51.704Z,68.40
2023-02-27T23:01:30.420Z,68.58
2023-02-27T23:04:00.828Z,68.55
2023-02-27T23:06:33.179Z,68.45
2023-02-27T23:09:00.539Z,69.07
2023-02-27T23:11:27.810Z,68.84
2023-02-27T23:13:54.574Z,69.23
2023-02-27T23:16:21.381Z,69.10
2023-02-27T23:18:56.870Z,69.49
2023-02-27T23:21:32.161Z,69.98
2023-02-27T23:23:58.822Z,69.20
2023-02-27T23:26:28.346Z,69.59
2023-02-27T23:28:56.174Z,69.59
2023-02-27T23:31:22.800Z,69.49
2023-02-27T23:33:49.416Z,69.38
2023-02-27T23:36:16.037Z,70.09
2023-02-27T23:38:43.078Z,70.16
2023-02-27T23:41:10.183Z,70.21
2023-02-27T23:43:36.767Z,70.24
2023-02-27T23:46:08.285Z,70.45
2023-02-27T23:48:35.685Z,70.72
2023-02-27T23:51:04.620Z,71.14
2023-02-27T23:53:32.038Z,71.27
2023-02-27T23:55:58.639Z,71.44
2023-02-27T23:58:25.472Z,71.91
